createdAt,value
2023-01-08T00:00:48.620Z,98365.28
2023-01-08T00:01:51.720Z,98375.09
2023-01-08T00:02:54.997Z,98377.91
2023-01-08T00:03:58.037Z,98369.84
2023-01-08T00:05:01.119Z,98367.53
2023-01-08T00:06:05.953Z,98376.87
2023-01-08T00:07:09.325Z,98370.09
2023-01-08T00:08:12.358Z,98368.53
2023-01-08T00:09:15.309Z,98370.16
2023-01-08T00:10:18.325Z,98369.44
2023-01-08T00:11:21.241Z,98367.09
2023-01-08T00:12:24.425Z,98372.81
2023-01-08T00:13:28.106Z,98370.19
2023-01-08T00:14:31.655Z,98373.03
2023-01-08T00:15:35.239Z,98371.00
2023-01-08T00:16:38.391Z,98372.78
2023-01-08T00:17:42.060Z,98377.47
2023-01-08T00:18:46.379Z,98375.84
2023-01-08T00:19:49.515Z,98373.72
2023-01-08T00:20:52.576Z,98378.91
2023-01-08T00:21:55.771Z,98372.69
2023-01-08T00:22:58.984Z,98370.41
2023-01-08T00:24:02.125Z,98364.47
2023-01-08T00:25:05.620Z,98359.19
2023-01-08T00:26:11.714Z,98361.06
2023-01-08T00:27:14.750Z,98350.97
2023-01-08T00:28:17.855Z,98346.81
2023-01-08T00:29:21.228Z,98327.59
2023-01-08T00:30:24.676Z,98338.44
2023-01-08T00:31:27.746Z,98330.72
2023-01-08T00:32:30.824Z,98330.25
2023-01-08T00:33:34.289Z,98321.97
2023-01-08T00:34:37.343Z,98319.91
2023-01-08T00:35:40.886Z,98322.56
2023-01-08T00:36:43.799Z,98321.25
2023-01-08T00:37:50.149Z,98317.84
2023-01-08T00:38:53.251Z,98315.97
2023-01-08T00:39:56.552Z,98319.41
2023-01-08T00:40:59.691Z,98312.16
2023-01-08T00:42:02.691Z,98307.69
2023-01-08T00:43:05.642Z,98310.28
2023-01-08T00:44:08.881Z,98315.75
2023-01-08T00:45:12.200Z,98316.25
2023-01-08T00:46:15.603Z,98324.84
2023-01-08T00:47:18.691Z,98320.41
2023-01-08T00:48:25.457Z,98320.75
2023-01-08T00:49:28.728Z,98327.41
2023-01-08T00:50:31.903Z,98323.97
2023-01-08T00:51:34.950Z,98326.03
2023-01-08T00:52:38.205Z,98317.22
2023-01-08T00:53:41.287Z,98330.47
2023-01-08T00:54:44.400Z,98334.94
2023-01-08T00:55:47.922Z,98340.06
2023-01-08T00:56:51.171Z,98343.12
2023-01-08T00:57:54.221Z,98336.56
2023-01-08T00:58:57.482Z,98341.25
2023-01-08T01:00:00.480Z,98345.66
2023-01-08T01:01:10.323Z,98345.63
2023-01-08T01:02:13.822Z,98350.03
2023-01-08T01:03:16.983Z,98351.84
2023-01-08T01:04:20.520Z,98350.84
2023-01-08T01:05:24.013Z,98354.97
2023-01-08T01:06:27.361Z,98353.13
2023-01-08T01:07:30.583Z,98355.50
2023-01-08T01:08:35.167Z,98355.88
2023-01-08T01:09:39.807Z,98352.09
2023-01-08T01:10:42.918Z,98355.50
2023-01-08T01:11:46.072Z,98355.66
2023-01-08T01:12:49.260Z,98362.06
2023-01-08T01:13:54.525Z,98370.03
2023-01-08T01:14:57.624Z,98365.94
2023-01-08T01:16:02.793Z,98353.50
2023-01-08T01:17:06.129Z,98364.22
2023-01-08T01:18:09.310Z,98361.09
2023-01-08T01:19:13.368Z,98353.47
2023-01-08T01:20:17.567Z,98358.88
2023-01-08T01:21:27.600Z,98354.78
2023-01-08T01:22:30.770Z,98344.22
2023-01-08T01:23:33.910Z,98351.69
2023-01-08T01:24:37.023Z,98348.03
2023-01-08T01:25:40.107Z,98344.94
2023-01-08T01:26:43.346Z,98341.31
2023-01-08T01:27:46.357Z,98331.81
2023-01-08T01:28:52.139Z,98329.19
2023-01-08T01:29:55.334Z,98337.75
2023-01-08T01:30:58.381Z,98326.59
2023-01-08T01:32:01.365Z,98334.09
2023-01-08T01:33:04.618Z,98329.94
2023-01-08T01:34:07.721Z,98317.06
2023-01-08T01:35:10.891Z,98324.81
2023-01-08T01:36:15.610Z,98313.34
2023-01-08T01:37:18.686Z,98325.56
2023-01-08T01:38:21.838Z,98319.63
2023-01-08T01:39:25.050Z,98311.63
2023-01-08T01:40:28.317Z,98316.06
2023-01-08T01:41:43.482Z,98313.19
2023-01-08T01:42:46.673Z,98304.84
2023-01-08T01:43:49.913Z,98312.19
2023-01-08T01:44:53.108Z,98307.47
2023-01-08T01:45:56.246Z,98297.81
2023-01-08T01:47:01.328Z,98299.63
2023-01-08T01:48:10.974Z,98290.28
2023-01-08T01:49:23.045Z,98289.78
2023-01-08T01:50:47.596Z,98283.63
2023-01-08T01:52:01.477Z,98290.59
2023-01-08T01:53:11.307Z,98287.19
2023-01-08T01:54:15.384Z,98288.50
2023-01-08T01:55:18.909Z,98291.06
2023-01-08T01:56:22.189Z,98295.19
2023-01-08T01:57:26.702Z,98286.34
2023-01-08T01:58:32.605Z,98278.87
2023-01-08T01:59:35.654Z,98276.22
2023-01-08T02:00:38.848Z,98284.09
2023-01-08T02:01:43.006Z,98271.34
2023-01-08T02:02:46.327Z,98266.62
2023-01-08T02:03:49.358Z,98274.19
2023-01-08T02:04:52.637Z,98276.59
2023-01-08T02:06:06.567Z,98274.19
2023-01-08T02:07:18.255Z,98276.03
2023-01-08T02:09:03.490Z,98270.53
2023-01-08T02:10:38.418Z,98263.56
2023-01-08T02:12:16.004Z,98258.84
2023-01-08T02:13:26.805Z,98263.75
2023-01-08T02:14:45.301Z,98263.75
2023-01-08T02:16:06.441Z,98262.75
2023-01-08T02:17:11.104Z,98264.81
2023-01-08T02:18:28.943Z,98259.12
2023-01-08T02:19:52.044Z,98255.75
2023-01-08T02:21:06.586Z,98248.75
2023-01-08T02:22:19.583Z,98259.12
2023-01-08T02:23:41.508Z,98261.22
2023-01-08T02:24:53.582Z,98260.44
2023-01-08T02:26:20.661Z,98255.19
2023-01-08T02:27:28.306Z,98251.59
2023-01-08T02:28:41.741Z,98256.00
2023-01-08T02:29:45.013Z,98254.16
2023-01-08T02:30:48.269Z,98244.56
2023-01-08T02:31:52.029Z,98257.31
2023-01-08T02:32:55.323Z,98252.91
2023-01-08T02:33:58.675Z,98259.69
2023-01-08T02:35:02.994Z,98250.31
2023-01-08T02:36:23.715Z,98249.50
2023-01-08T02:37:26.712Z,98252.06
2023-01-08T02:38:30.834Z,98245.59
2023-01-08T02:39:55.447Z,98247.91
2023-01-08T02:41:05.920Z,98238.06
2023-01-08T02:42:16.153Z,98245.88
2023-01-08T02:43:46.369Z,98244.81
2023-01-08T02:45:15.032Z,98248.41
2023-01-08T02:46:25.245Z,98245.78
2023-01-08T02:47:40.389Z,98247.09
2023-01-08T02:48:47.997Z,98251.50
2023-01-08T02:49:57.266Z,98238.56
2023-01-08T02:51:18.258Z,98244.31
2023-01-08T02:52:22.465Z,98237.31
2023-01-08T02:53:47.637Z,98239.38
2023-01-08T02:54:51.136Z,98238.31
2023-01-08T02:55:59.411Z,98237.25
2023-01-08T02:57:13.422Z,98235.16
2023-01-08T02:58:18.366Z,98244.00
2023-01-08T02:59:23.591Z,98240.59
2023-01-08T03:00:27.772Z,98237.75
2023-01-08T03:01:31.874Z,98231.56
2023-01-08T03:02:37.281Z,98237.50
2023-01-08T03:03:44.872Z,98238.50
2023-01-08T03:05:00.439Z,98233.00
2023-01-08T03:06:09.757Z,98229.47
2023-01-08T03:07:12.984Z,98232.59
2023-01-08T03:08:18.336Z,98229.50
2023-01-08T03:09:21.475Z,98223.28
2023-01-08T03:10:28.951Z,98221.22
2023-01-08T03:11:38.791Z,98217.03
2023-01-08T03:12:52.161Z,98212.56
2023-01-08T03:14:20.325Z,98225.75
2023-01-08T03:15:31.237Z,98217.69
2023-01-08T03:16:37.242Z,98224.47
2023-01-08T03:17:48.303Z,98224.22
2023-01-08T03:18:55.751Z,98224.72
2023-01-08T03:20:07.528Z,98220.25
2023-01-08T03:21:10.987Z,98226.03
2023-01-08T03:22:17.884Z,98228.34
2023-01-08T03:23:23.543Z,98222.16
2023-01-08T03:24:32.114Z,98215.69
2023-01-08T03:25:40.228Z,98227.88
2023-01-08T03:26:45.797Z,98221.09
2023-01-08T03:27:53.563Z,98224.50
2023-01-08T03:28:58.069Z,98223.50
2023-01-08T03:30:02.908Z,98221.41
2023-01-08T03:31:08.415Z,98222.69
2023-01-08T03:32:16.324Z,98224.16
2023-01-08T03:33:20.583Z,98219.47
2023-01-08T03:34:27.482Z,98230.09
2023-01-08T03:35:32.935Z,98229.28
2023-01-08T03:36:39.542Z,98226.00
2023-01-08T03:37:49.732Z,98230.44
2023-01-08T03:39:04.636Z,98231.72
2023-01-08T03:40:25.484Z,98235.38
2023-01-08T03:41:32.132Z,98225.72
2023-01-08T03:42:35.227Z,98221.34
2023-01-08T03:43:38.312Z,98216.16
2023-01-08T03:44:41.711Z,98212.78
2023-01-08T03:45:56.754Z,98220.03
2023-01-08T03:46:59.826Z,98210.66
2023-01-08T03:48:04.977Z,98215.34
2023-01-08T03:49:09.447Z,98212.47
2023-01-08T03:50:26.833Z,98214.34
2023-01-08T03:51:29.939Z,98198.75
2023-01-08T03:52:36.144Z,98200.81
2023-01-08T03:53:39.519Z,98200.81
2023-01-08T03:54:42.457Z,98206.81
2023-01-08T03:55:45.694Z,98199.56
2023-01-08T03:56:48.905Z,98206.16
2023-01-08T03:57:52.041Z,98198.34
2023-01-08T03:58:55.052Z,98204.56
2023-01-08T03:59:58.106Z,98202.22
2023-01-08T04:01:01.493Z,98199.69
2023-01-08T04:02:04.710Z,98204.41
2023-01-08T04:03:08.057Z,98213.47
2023-01-08T04:04:11.750Z,98210.59
2023-01-08T04:05:14.924Z,98211.53
2023-01-08T04:06:19.142Z,98213.62
2023-01-08T04:07:22.634Z,98212.09
2023-01-08T04:08:25.976Z,98217.56
2023-01-08T04:09:29.295Z,98220.91
2023-01-08T04:10:32.349Z,98229.00
2023-01-08T04:11:35.863Z,98221.19
2023-01-08T04:12:38.832Z,98214.91
2023-01-08T04:13:41.831Z,98218.00
2023-01-08T04:14:44.757Z,98214.12
2023-01-08T04:15:49.841Z,98212.53
2023-01-08T04:16:52.971Z,98208.41
2023-01-08T04:17:56.387Z,98205.34
2023-01-08T04:18:59.505Z,98202.22
2023-01-08T04:20:03.012Z,98203.75
2023-01-08T04:21:06.447Z,98210.72
2023-01-08T04:22:12.995Z,98202.44
2023-01-08T04:23:16.849Z,98205.28
2023-01-08T04:24:20.391Z,98215.19
2023-01-08T04:25:23.410Z,98205.91
2023-01-08T04:26:26.483Z,98211.56
2023-01-08T04:27:30.020Z,98213.84
2023-01-08T04:28:33.439Z,98206.62
2023-01-08T04:29:36.665Z,98208.75
2023-01-08T04:30:39.750Z,98209.03
2023-01-08T04:31:43.012Z,98202.78
2023-01-08T04:32:46.028Z,98203.59
2023-01-08T04:33:49.387Z,98205.13
2023-01-08T04:34:52.430Z,98198.62
2023-01-08T04:35:55.395Z,98203.50
2023-01-08T04:36:59.155Z,98206.09
2023-01-08T04:38:02.414Z,98204.56
2023-01-08T04:39:05.951Z,98208.97
2023-01-08T04:40:09.780Z,98210.06
2023-01-08T04:41:12.838Z,98211.59
2023-01-08T04:42:16.123Z,98208.72
2023-01-08T04:43:19.150Z,98212.91
2023-01-08T04:44:22.218Z,98212.31
2023-01-08T04:45:25.599Z,98210.00
2023-01-08T04:46:28.940Z,98212.56
2023-01-08T04:47:32.041Z,98218.00
2023-01-08T04:48:35.713Z,98206.66
2023-01-08T04:49:38.813Z,98213.91
2023-01-08T04:50:41.783Z,98210.25
2023-01-08T04:51:44.998Z,98218.31
2023-01-08T04:52:48.017Z,98205.31
2023-01-08T04:53:51.185Z,98211.84
2023-01-08T04:54:54.457Z,98214.72
2023-01-08T04:56:03.091Z,98211.63
2023-01-08T04:57:06.311Z,98211.84
2023-01-08T04:58:09.575Z,98214.72
2023-01-08T04:59:12.683Z,98211.56
2023-01-08T05:00:16.300Z,98205.84
2023-01-08T05:01:24.494Z,98196.28
2023-01-08T05:02:27.692Z,98206.66
2023-01-08T05:03:31.758Z,98199.16
2023-01-08T05:04:34.882Z,98205.62
2023-01-08T05:05:38.484Z,98209.75
2023-01-08T05:06:41.530Z,98200.94
2023-01-08T05:07:44.556Z,98204.34
2023-01-08T05:08:47.705Z,98198.12
2023-01-08T05:09:50.705Z,98208.25
2023-01-08T05:10:53.894Z,98204.31
2023-01-08T05:11:56.973Z,98200.16
2023-01-08T05:13:00.670Z,98198.88
2023-01-08T05:14:04.125Z,98198.81
2023-01-08T05:15:07.958Z,98201.91
2023-01-08T05:16:11.129Z,98197.75
2023-01-08T05:17:14.619Z,98202.75
2023-01-08T05:18:17.900Z,98198.34
2023-01-08T05:19:21.004Z,98190.06
2023-01-08T05:20:24.124Z,98199.44
2023-01-08T05:21:27.305Z,98196.81
2023-01-08T05:22:30.544Z,98193.94
2023-01-08T05:23:34.033Z,98197.84
2023-01-08T05:24:37.031Z,98198.66
2023-01-08T05:25:39.981Z,98195.25
2023-01-08T05:26:43.099Z,98184.81
2023-01-08T05:27:46.061Z,98185.09
2023-01-08T05:28:49.357Z,98178.34
2023-01-08T05:29:52.381Z,98180.97
2023-01-08T05:30:59.539Z,98176.84
2023-01-08T05:32:02.657Z,98179.94
2023-01-08T05:33:05.663Z,98180.19
2023-01-08T05:34:08.732Z,98178.84
2023-01-08T05:35:11.919Z,98178.28
2023-01-08T05:36:15.293Z,98172.59
2023-01-08T05:37:18.361Z,98184.00
2023-01-08T05:38:21.478Z,98184.78
2023-01-08T05:39:24.631Z,98191.00
2023-01-08T05:40:27.756Z,98182.25
2023-01-08T05:41:30.807Z,98181.16
2023-01-08T05:42:35.869Z,98185.78
2023-01-08T05:43:39.036Z,98179.09
2023-01-08T05:44:42.212Z,98191.53
2023-01-08T05:45:45.279Z,98188.97
2023-01-08T05:46:48.843Z,98184.88
2023-01-08T05:47:52.214Z,98187.41
2023-01-08T05:48:55.292Z,98185.59
2023-01-08T05:49:58.437Z,98174.59
2023-01-08T05:51:02.128Z,98174.59
2023-01-08T05:52:05.169Z,98172.81
2023-01-08T05:53:09.443Z,98173.59
2023-01-08T05:54:12.431Z,98173.63
2023-01-08T05:55:15.717Z,98182.47
2023-01-08T05:56:18.904Z,98173.63
2023-01-08T05:57:21.871Z,98170.00
2023-01-08T05:58:25.110Z,98167.44
2023-01-08T05:59:28.263Z,98164.91
2023-01-08T06:00:31.992Z,98164.59
2023-01-08T06:01:35.113Z,98159.94
2023-01-08T06:02:38.146Z,98161.22
2023-01-08T06:03:41.354Z,98152.12
2023-01-08T06:04:44.503Z,98152.66
2023-01-08T06:05:47.463Z,98153.41
2023-01-08T06:06:50.467Z,98156.03
2023-01-08T06:07:53.462Z,98156.53
2023-01-08T06:08:56.633Z,98154.72
2023-01-08T06:09:59.667Z,98157.03
2023-01-08T06:11:04.545Z,98161.16
2023-01-08T06:12:07.782Z,98156.75
2023-01-08T06:13:11.259Z,98162.47
2023-01-08T06:14:16.758Z,98156.75
2023-01-08T06:15:19.824Z,98153.94
2023-01-08T06:16:23.008Z,98159.09
2023-01-08T06:17:26.266Z,98153.91
2023-01-08T06:18:31.361Z,98150.03
2023-01-08T06:19:34.663Z,98151.84
2023-01-08T06:20:37.833Z,98154.44
2023-01-08T06:21:41.251Z,98149.75
2023-01-08T06:22:44.629Z,98152.34
2023-01-08T06:23:47.713Z,98154.72
2023-01-08T06:24:50.812Z,98152.59
2023-01-08T06:25:55.793Z,98163.53
2023-01-08T06:26:59.082Z,98159.13
2023-01-08T06:28:02.145Z,98149.78
2023-01-08T06:29:05.177Z,98148.97
2023-01-08T06:30:09.352Z,98147.94
2023-01-08T06:31:12.400Z,98147.94
2023-01-08T06:32:15.603Z,98147.66
2023-01-08T06:33:21.400Z,98149.66
2023-01-08T06:34:25.224Z,98141.28
2023-01-08T06:35:28.829Z,98145.19
2023-01-08T06:36:32.216Z,98143.75
2023-01-08T06:37:35.520Z,98144.25
2023-01-08T06:38:39.152Z,98145.81
2023-01-08T06:39:42.175Z,98136.81
2023-01-08T06:40:46.416Z,98146.66
2023-01-08T06:41:49.298Z,98143.56
2023-01-08T06:42:52.598Z,98142.53
2023-01-08T06:43:55.631Z,98144.28
2023-01-08T06:44:58.674Z,98150.28
2023-01-08T06:46:02.004Z,98154.38
2023-01-08T06:47:05.068Z,98154.66
2023-01-08T06:48:08.212Z,98148.72
2023-01-08T06:49:11.239Z,98157.47
2023-01-08T06:50:14.237Z,98160.56
2023-01-08T06:51:17.856Z,98159.84
2023-01-08T06:52:20.871Z,98153.91
2023-01-08T06:53:23.970Z,98146.91
2023-01-08T06:54:27.004Z,98148.16
2023-01-08T06:55:30.101Z,98150.53
2023-01-08T06:56:37.736Z,98154.69
2023-01-08T06:57:49.039Z,98157.53
2023-01-08T06:58:52.037Z,98155.47
2023-01-08T06:59:55.162Z,98156.72
2023-01-08T07:00:59.248Z,98158.06
2023-01-08T07:02:02.549Z,98151.75
2023-01-08T07:03:06.292Z,98150.44
2023-01-08T07:04:09.739Z,98148.31
2023-01-08T07:05:12.868Z,98151.50
2023-01-08T07:06:18.457Z,98141.16
2023-01-08T07:07:21.721Z,98148.44
2023-01-08T07:08:24.866Z,98150.00
2023-01-08T07:09:28.260Z,98143.50
2023-01-08T07:10:31.642Z,98148.19
2023-01-08T07:11:34.654Z,98150.81
2023-01-08T07:12:37.787Z,98154.44
2023-01-08T07:13:40.780Z,98153.09
2023-01-08T07:14:43.825Z,98159.13
2023-01-08T07:15:46.778Z,98160.12
2023-01-08T07:16:49.946Z,98164.03
2023-01-08T07:17:53.207Z,98157.53
2023-01-08T07:18:56.503Z,98154.16
2023-01-08T07:20:00.091Z,98160.09
2023-01-08T07:21:04.218Z,98155.19
2023-01-08T07:22:07.519Z,98145.62
2023-01-08T07:23:11.909Z,98147.72
2023-01-08T07:24:15.228Z,98150.63
2023-01-08T07:25:18.343Z,98147.78
2023-01-08T07:26:21.526Z,98153.19
2023-01-08T07:27:24.542Z,98154.50
2023-01-08T07:28:28.042Z,98146.47
2023-01-08T07:29:31.147Z,98146.22
2023-01-08T07:30:34.914Z,98132.72
2023-01-08T07:31:38.097Z,98143.09
2023-01-08T07:32:41.435Z,98144.34
2023-01-08T07:33:44.533Z,98141.47
2023-01-08T07:34:47.691Z,98148.75
2023-01-08T07:35:57.102Z,98144.13
2023-01-08T07:37:00.150Z,98145.69
2023-01-08T07:38:03.452Z,98153.22
2023-01-08T07:39:06.498Z,98143.81
2023-01-08T07:40:12.240Z,98145.94
2023-01-08T07:41:15.724Z,98142.78
2023-01-08T07:42:19.696Z,98141.00
2023-01-08T07:43:22.817Z,98148.22
2023-01-08T07:44:25.874Z,98141.72
2023-01-08T07:45:30.158Z,98139.19
2023-01-08T07:46:33.170Z,98137.84
2023-01-08T07:47:36.630Z,98137.28
2023-01-08T07:48:39.822Z,98135.00
2023-01-08T07:49:43.254Z,98129.03
2023-01-08T07:50:46.981Z,98139.19
2023-01-08T07:51:50.763Z,98131.91
2023-01-08T07:52:56.813Z,98137.38
2023-01-08T07:53:59.916Z,98139.72
2023-01-08T07:55:03.007Z,98140.78
2023-01-08T07:56:08.720Z,98137.41
2023-01-08T07:57:11.839Z,98126.75
2023-01-08T07:58:15.456Z,98130.66
2023-01-08T07:59:18.449Z,98119.47
2023-01-08T08:00:21.531Z,98140.50
2023-01-08T08:01:26.526Z,98136.28
2023-01-08T08:02:30.021Z,98136.81
2023-01-08T08:03:33.339Z,98129.06
2023-01-08T08:04:36.353Z,98129.84
2023-01-08T08:05:39.847Z,98125.69
2023-01-08T08:06:43.626Z,98130.34
2023-01-08T08:07:46.722Z,98126.94
2023-01-08T08:08:49.775Z,98142.03
2023-01-08T08:09:53.049Z,98128.81
2023-01-08T08:10:56.249Z,98130.12
2023-01-08T08:11:59.385Z,98123.38
2023-01-08T08:13:03.623Z,98127.50
2023-01-08T08:14:07.535Z,98121.25
2023-01-08T08:15:10.863Z,98124.66
2023-01-08T08:16:13.877Z,98117.66
2023-01-08T08:17:17.018Z,98120.00
2023-01-08T08:18:20.761Z,98117.91
2023-01-08T08:19:23.813Z,98116.91
2023-01-08T08:20:27.450Z,98110.13
2023-01-08T08:21:30.900Z,98101.31
2023-01-08T08:22:33.955Z,98113.00
2023-01-08T08:23:37.230Z,98106.50
2023-01-08T08:24:41.096Z,98116.38
2023-01-08T08:25:44.188Z,98111.69
2023-01-08T08:26:47.498Z,98121.03
2023-01-08T08:27:50.659Z,98113.19
2023-01-08T08:28:53.984Z,98100.75
2023-01-08T08:29:56.925Z,98101.03
2023-01-08T08:31:00.004Z,98097.41
2023-01-08T08:32:04.013Z,98108.31
2023-01-08T08:33:07.854Z,98108.59
2023-01-08T08:34:10.742Z,98099.50
2023-01-08T08:35:13.708Z,98101.34
2023-01-08T08:36:16.718Z,98095.13
2023-01-08T08:37:19.795Z,98096.69
2023-01-08T08:38:24.125Z,98089.91
2023-01-08T08:39:27.556Z,98090.16
2023-01-08T08:40:31.140Z,98099.78
2023-01-08T08:41:34.341Z,98108.84
2023-01-08T08:42:37.678Z,98102.38
2023-01-08T08:43:40.784Z,98092.78
2023-01-08T08:44:43.955Z,98085.22
2023-01-08T08:45:46.998Z,98070.97
2023-01-08T08:46:50.367Z,98095.13
2023-01-08T08:47:53.965Z,98086.53
2023-01-08T08:48:57.027Z,98094.59
2023-01-08T08:50:00.167Z,98100.03
2023-01-08T08:51:04.900Z,98086.28
2023-01-08T08:52:08.297Z,98077.44
2023-01-08T08:53:11.579Z,98090.16
2023-01-08T08:54:14.780Z,98090.97
2023-01-08T08:55:18.511Z,98093.81
2023-01-08T08:56:21.589Z,98094.59
2023-01-08T08:57:25.806Z,98092.25
2023-01-08T08:58:28.976Z,98088.59
2023-01-08T08:59:32.732Z,98077.44
2023-01-08T09:00:35.882Z,98084.47
2023-01-08T09:01:39.111Z,98094.84
2023-01-08T09:02:42.530Z,98092.25
2023-01-08T09:03:45.921Z,98095.37
2023-01-08T09:04:49.281Z,98091.72
2023-01-08T09:05:52.385Z,98086.56
2023-01-08T09:06:55.649Z,98086.53
2023-01-08T09:07:59.037Z,98079.50
2023-01-08T09:09:02.032Z,98074.56
2023-01-08T09:10:05.918Z,98072.22
2023-01-08T09:11:09.212Z,98088.09
2023-01-08T09:12:12.050Z,98084.16
2023-01-08T09:13:15.075Z,98081.59
2023-01-08T09:14:17.950Z,98082.88
2023-01-08T09:15:21.356Z,98089.63
2023-01-08T09:16:24.435Z,98081.34
2023-01-08T09:17:31.269Z,98083.16
2023-01-08T09:18:34.380Z,98071.19
2023-01-08T09:19:38.883Z,98066.53
2023-01-08T09:20:42.163Z,98079.25
2023-01-08T09:21:45.676Z,98075.06
2023-01-08T09:22:48.623Z,98077.91
2023-01-08T09:23:51.636Z,98070.84
2023-01-08T09:24:55.508Z,98075.53
2023-01-08T09:26:03.077Z,98069.53
2023-01-08T09:27:06.150Z,98063.53
2023-01-08T09:28:13.145Z,98078.88
2023-01-08T09:29:16.337Z,98063.22
2023-01-08T09:30:19.484Z,98069.50
2023-01-08T09:31:23.102Z,98066.84
2023-01-08T09:32:26.474Z,98068.97
2023-01-08T09:33:29.979Z,98073.09
2023-01-08T09:34:33.439Z,98065.34
2023-01-08T09:35:36.468Z,98068.19
2023-01-08T09:36:39.473Z,98069.25
2023-01-08T09:37:42.639Z,98055.41
2023-01-08T09:38:46.179Z,98049.56
2023-01-08T09:39:57.692Z,98046.62
2023-01-08T09:41:10.740Z,98052.56
2023-01-08T09:42:14.851Z,98041.59
2023-01-08T09:43:21.587Z,98039.44
2023-01-08T09:44:28.743Z,98037.16
2023-01-08T09:45:34.517Z,98039.00
2023-01-08T09:46:37.650Z,98033.87
2023-01-08T09:47:44.223Z,98038.12
2023-01-08T09:48:47.236Z,98037.09
2023-01-08T09:49:52.484Z,98030.50
2023-01-08T09:50:55.821Z,98027.59
2023-01-08T09:51:59.791Z,98023.84
2023-01-08T09:53:03.009Z,98027.50
2023-01-08T09:54:07.811Z,98027.28
2023-01-08T09:55:14.203Z,98028.56
2023-01-08T09:56:19.136Z,98014.41
2023-01-08T09:57:23.135Z,98025.25
2023-01-08T09:58:39.776Z,98023.09
2023-01-08T09:59:44.052Z,98017.13
2023-01-08T10:00:47.072Z,98018.66
2023-01-08T10:01:52.680Z,98013.84
2023-01-08T10:02:56.828Z,98005.97
2023-01-08T10:04:29.690Z,98012.50
2023-01-08T10:05:32.783Z,98023.75
2023-01-08T10:06:35.958Z,98007.75
2023-01-08T10:07:40.261Z,98011.84
2023-01-08T10:09:53.817Z,98000.09
2023-01-08T10:10:56.838Z,98005.22
2023-01-08T10:12:06.278Z,98006.72
2023-01-08T10:13:11.792Z,97981.09
2023-01-08T10:14:28.548Z,97984.47
2023-01-08T10:15:31.450Z,98001.84
2023-01-08T10:16:38.603Z,97999.09
2023-01-08T10:17:56.355Z,97992.75
2023-01-08T10:19:00.367Z,97984.56
2023-01-08T10:20:14.383Z,97980.66
2023-01-08T10:21:18.374Z,97976.13
2023-01-08T10:22:24.806Z,97966.94
2023-01-08T10:23:28.145Z,97987.69
2023-01-08T10:24:45.175Z,97977.53
2023-01-08T10:26:00.499Z,97980.59
2023-01-08T10:27:17.574Z,97967.97
2023-01-08T10:28:26.737Z,97976.34
2023-01-08T10:29:29.742Z,97981.72
2023-01-08T10:30:38.918Z,97969.53
2023-01-08T10:31:58.804Z,97969.47
2023-01-08T10:33:07.741Z,97970.22
2023-01-08T10:34:11.441Z,97976.06
2023-01-08T10:35:19.844Z,97984.47
2023-01-08T10:36:27.943Z,97975.88
2023-01-08T10:37:37.049Z,97960.66
2023-01-08T10:39:03.343Z,97968.25
2023-01-08T10:40:42.545Z,97968.94
2023-01-08T10:41:45.768Z,97964.47
2023-01-08T10:42:50.629Z,97960.06
2023-01-08T10:43:55.153Z,97960.94
2023-01-08T10:45:01.281Z,97956.41
2023-01-08T10:46:08.020Z,97945.34
2023-01-08T10:47:18.526Z,97949.53
2023-01-08T10:48:21.899Z,97949.16
2023-01-08T10:49:44.089Z,97943.91
2023-01-08T10:50:48.254Z,97934.00
2023-01-08T10:51:56.748Z,97940.50
2023-01-08T10:53:02.808Z,97949.16
2023-01-08T10:54:31.498Z,97946.62
2023-01-08T10:55:37.714Z,97943.69
2023-01-08T10:56:45.625Z,97937.56
2023-01-08T10:58:00.644Z,97939.47
2023-01-08T10:59:03.739Z,97941.97
2023-01-08T11:00:22.262Z,97933.19
2023-01-08T11:01:31.573Z,97941.81
2023-01-08T11:02:38.936Z,97938.44
2023-01-08T11:03:42.733Z,97940.50
2023-01-08T11:04:51.750Z,97939.69
2023-01-08T11:05:55.206Z,97937.22
2023-01-08T11:07:03.751Z,97937.69
2023-01-08T11:08:15.982Z,97935.03
2023-01-08T11:09:24.173Z,97936.00
2023-01-08T11:10:29.396Z,97929.09
2023-01-08T11:11:38.186Z,97932.59
2023-01-08T11:12:42.022Z,97930.81
2023-01-08T11:14:01.239Z,97916.19
2023-01-08T11:15:27.107Z,97927.53
2023-01-08T11:16:37.383Z,97921.63
2023-01-08T11:17:40.488Z,97919.50
2023-01-08T11:18:52.751Z,97919.56
2023-01-08T11:19:56.081Z,97917.75
2023-01-08T11:21:18.305Z,97920.03
2023-01-08T11:22:26.295Z,97916.91
2023-01-08T11:23:30.786Z,97908.22
2023-01-08T11:24:39.373Z,97903.19
2023-01-08T11:25:45.713Z,97898.22
2023-01-08T11:26:57.790Z,97892.47
2023-01-08T11:28:04.879Z,97892.00
2023-01-08T11:29:29.054Z,97886.97
2023-01-08T11:30:36.782Z,97888.47
2023-01-08T11:31:47.734Z,97891.47
2023-01-08T11:32:58.623Z,97895.72
2023-01-08T11:34:24.417Z,97884.00
2023-01-08T11:35:31.716Z,97877.81
2023-01-08T11:36:39.415Z,97885.53
2023-01-08T11:37:59.713Z,97882.69
2023-01-08T11:39:03.410Z,97878.81
2023-01-08T11:40:18.662Z,97873.16
2023-01-08T11:41:53.022Z,97871.91
2023-01-08T11:43:25.425Z,97864.12
2023-01-08T11:44:40.574Z,97865.59
2023-01-08T11:46:13.539Z,97871.78
2023-01-08T11:47:58.547Z,97866.06
2023-01-08T11:49:16.605Z,97858.69
2023-01-08T11:50:29.048Z,97856.69
2023-01-08T11:51:44.178Z,97857.25
2023-01-08T11:53:06.575Z,97853.50
2023-01-08T11:54:24.520Z,97861.22
2023-01-08T11:55:43.617Z,97848.34
2023-01-08T11:57:17.420Z,97854.84
2023-01-08T11:58:26.557Z,97848.56
2023-01-08T11:59:52.094Z,97856.47
2023-01-08T12:01:03.911Z,97857.75
2023-01-08T12:02:28.736Z,97854.78
2023-01-08T12:03:41.584Z,97851.94
2023-01-08T12:05:22.275Z,97850.69
2023-01-08T12:06:29.075Z,97852.63
2023-01-08T12:08:05.622Z,97844.13
2023-01-08T12:09:31.571Z,97836.78
2023-01-08T12:11:11.463Z,97851.78
2023-01-08T12:12:26.977Z,97848.53
2023-01-08T12:14:09.963Z,97846.16
2023-01-08T12:15:18.776Z,97838.09
2023-01-08T12:16:30.993Z,97843.91
2023-01-08T12:17:45.730Z,97841.38
2023-01-08T12:19:07.147Z,97838.63
2023-01-08T12:20:25.504Z,97849.97
2023-01-08T12:21:33.979Z,97839.47
2023-01-08T12:22:51.840Z,97843.31
2023-01-08T12:24:00.480Z,97849.38
2023-01-08T12:25:27.101Z,97852.16
2023-01-08T12:26:51.898Z,97838.63
2023-01-08T12:28:02.331Z,97841.91
2023-01-08T12:29:20.154Z,97852.53
2023-01-08T12:30:42.273Z,97844.97
2023-01-08T12:32:01.913Z,97848.53
2023-01-08T12:33:27.623Z,97848.66
2023-01-08T12:34:54.217Z,97848.03
2023-01-08T12:36:02.311Z,97847.91
2023-01-08T12:37:34.073Z,97846.88
2023-01-08T12:38:43.912Z,97846.88
2023-01-08T12:39:53.787Z,97844.72
2023-01-08T12:41:02.035Z,97841.06
2023-01-08T12:42:24.950Z,97850.03
2023-01-08T12:43:33.899Z,97841.16
2023-01-08T12:44:39.783Z,97853.41
2023-01-08T12:45:51.231Z,97844.09
2023-01-08T12:46:58.787Z,97845.84
2023-01-08T12:48:07.421Z,97838.81
2023-01-08T12:49:15.119Z,97840.34
2023-01-08T12:50:18.580Z,97845.72
2023-01-08T12:51:27.395Z,97840.28
2023-01-08T12:53:01.270Z,97843.97
2023-01-08T12:54:22.443Z,97845.81
2023-01-08T12:55:40.707Z,97834.22
2023-01-08T12:56:43.783Z,97838.31
2023-01-08T12:58:17.036Z,97836.28
2023-01-08T12:59:29.931Z,97837.88
2023-01-08T13:00:42.397Z,97836.34
2023-01-08T13:01:56.447Z,97836.13
2023-01-08T13:03:02.923Z,97828.66
2023-01-08T13:04:10.030Z,97830.47
2023-01-08T13:05:31.240Z,97835.00
2023-01-08T13:06:35.501Z,97847.34